createdAt,value
2017-09-10T00:00:52.363Z,28.37
2017-09-10T00:03:19.824Z,20.20
2017-09-10T00:05:47.284Z,28.50
2017-09-10T00:08:14.844Z,29.23
2017-09-10T00:10:42.412Z,32.73
2017-09-10T00:13:09.873Z,28.30
2017-09-10T00:15:38.193Z,28.03
2017-09-10T00:18:05.656Z,31.30
2017-09-10T00:20:33.120Z,31.80
2017-09-10T00:23:00.599Z,37.20
2017-09-10T00:25:28.404Z,27.47
2017-09-10T00:27:55.885Z,25.10
2017-09-10T00:30:23.391Z,25.50
2017-09-10T00:32:50.853Z,31.37
2017-09-10T00:35:19.095Z,44.57
2017-09-10T00:37:46.568Z,35.10
2017-09-10T00:40:16.749Z,29.10
2017-09-10T00:42:44.228Z,28.23
2017-09-10T00:45:11.715Z,32.60
2017-09-10T00:47:39.987Z,31.40
2017-09-10T00:50:07.453Z,46.97
2017-09-10T00:52:34.918Z,28.83
2017-09-10T00:55:03.179Z,40.27
2017-09-10T00:57:30.640Z,37.77
2017-09-10T00:59:58.918Z,34.40
2017-09-10T01:02:27.148Z,29.90
2017-09-10T01:04:54.610Z,24.80
2017-09-10T01:07:22.083Z,28.40
2017-09-10T01:09:49.552Z,37.93
2017-09-10T01:12:17.013Z,35.83
2017-09-10T01:14:44.487Z,37.87
2017-09-10T01:17:12.747Z,27.67
2017-09-10T01:19:40.307Z,32.97
2017-09-10T01:22:07.864Z,30.27
2017-09-10T01:24:36.092Z,32.07
2017-09-10T01:27:03.561Z,40.30
2017-09-10T01:29:31.048Z,28.97
2017-09-10T01:31:58.611Z,31.67
2017-09-10T01:34:26.851Z,27.47
2017-09-10T01:36:54.343Z,31.33
2017-09-10T01:39:22.580Z,26.70
2017-09-10T01:41:50.048Z,35.33
2017-09-10T01:44:17.514Z,30.50
2017-09-10T01:46:44.979Z,29.20
2017-09-10T01:49:12.468Z,26.87
2017-09-10T01:51:39.941Z,21.53
2017-09-10T01:54:07.457Z,33.00
2017-09-10T01:56:34.922Z,26.40
2017-09-10T01:59:03.166Z,36.33
2017-09-10T02:01:30.631Z,35.10
2017-09-10T02:03:58.095Z,31.77
2017-09-10T02:06:26.336Z,23.47
2017-09-10T02:08:53.804Z,25.07
2017-09-10T02:11:21.293Z,33.70
2017-09-10T02:13:48.854Z,31.63
2017-09-10T02:16:16.403Z,27.87
2017-09-10T02:18:43.870Z,30.20
2017-09-10T02:21:12.102Z,24.20
2017-09-10T02:23:39.591Z,30.03
2017-09-10T02:26:07.059Z,25.90
2017-09-10T02:28:35.302Z,22.10
2017-09-10T02:31:02.770Z,28.27
2017-09-10T02:33:31.143Z,33.97
2017-09-10T02:35:58.619Z,26.67
2017-09-10T02:38:26.084Z,24.77
2017-09-10T02:40:54.318Z,25.07
2017-09-10T02:43:21.807Z,28.67
2017-09-10T02:45:50.085Z,18.83
2017-09-10T02:48:17.555Z,26.53
2017-09-10T02:50:46.518Z,31.73
2017-09-10T02:53:13.992Z,31.90
2017-09-10T02:55:41.447Z,28.53
2017-09-10T02:58:10.427Z,24.03
2017-09-10T03:00:37.895Z,31.53
2017-09-10T03:03:05.368Z,32.20
2017-09-10T03:05:33.626Z,27.47
2017-09-10T03:08:01.904Z,24.20
2017-09-10T03:10:30.145Z,32.03
2017-09-10T03:12:57.631Z,31.30
2017-09-10T03:15:25.104Z,36.30
2017-09-10T03:17:53.875Z,22.80
2017-09-10T03:20:21.341Z,25.17
2017-09-10T03:22:49.603Z,26.97
2017-09-10T03:25:17.071Z,27.83
2017-09-10T03:27:44.543Z,29.77
2017-09-10T03:30:12.820Z,27.83
2017-09-10T03:32:40.287Z,32.13
2017-09-10T03:35:07.756Z,24.20
2017-09-10T03:37:35.271Z,33.27
2017-09-10T03:40:02.832Z,25.60
2017-09-10T03:42:30.383Z,24.87
2017-09-10T03:44:57.863Z,30.87
2017-09-10T03:47:26.088Z,26.87
2017-09-10T03:49:53.557Z,24.93
2017-09-10T03:52:21.139Z,26.90
2017-09-10T03:54:48.699Z,24.63
2017-09-10T03:57:16.998Z,26.93
2017-09-10T03:59:44.523Z,22.73
2017-09-10T04:02:12.066Z,38.20
2017-09-10T04:04:39.646Z,32.17
2017-09-10T04:07:07.103Z,25.13
2017-09-10T04:09:34.663Z,31.13
2017-09-10T04:12:02.145Z,30.67
2017-09-10T04:14:30.371Z,39.03
2017-09-10T04:16:57.843Z,29.63
2017-09-10T04:19:26.088Z,24.63
2017-09-10T04:21:53.552Z,36.77
2017-09-10T04:24:21.027Z,49.57
2017-09-10T04:26:48.603Z,35.30
2017-09-10T04:29:16.879Z,33.17
2017-09-10T04:31:45.111Z,25.03
2017-09-10T04:34:13.208Z,28.63
2017-09-10T04:36:40.674Z,30.90
2017-09-10T04:39:08.135Z,31.87
2017-09-10T04:41:37.192Z,42.87
2017-09-10T04:44:04.671Z,29.27
2017-09-10T04:46:32.266Z,31.73
2017-09-10T04:49:00.498Z,33.53
2017-09-10T04:51:27.974Z,27.13
2017-09-10T04:53:55.457Z,40.70
2017-09-10T04:56:23.695Z,39.27
2017-09-10T04:58:51.171Z,35.67
2017-09-10T05:01:19.434Z,22.13
2017-09-10T05:03:46.985Z,26.40
2017-09-10T05:06:14.451Z,31.03
2017-09-10T05:08:41.914Z,28.57
2017-09-10T05:11:10.186Z,33.23
2017-09-10T05:13:37.652Z,38.60
2017-09-10T05:16:05.879Z,32.03
2017-09-10T05:18:34.047Z,27.73
2017-09-10T05:21:01.516Z,34.93
2017-09-10T05:23:29.006Z,31.50
2017-09-10T05:25:57.415Z,35.73
2017-09-10T05:28:25.635Z,42.97
2017-09-10T05:30:53.110Z,33.80
2017-09-10T05:33:20.667Z,35.50
2017-09-10T05:35:48.233Z,46.57
2017-09-10T05:38:15.699Z,40.57
2017-09-10T05:40:43.956Z,48.90
2017-09-10T05:43:12.469Z,31.07
2017-09-10T05:45:40.771Z,22.57
2017-09-10T05:48:08.255Z,35.43
2017-09-10T05:50:35.724Z,42.43
2017-09-10T05:53:03.192Z,34.00
2017-09-10T05:55:30.753Z,30.07
2017-09-10T05:57:58.982Z,34.30
2017-09-10T06:00:26.484Z,34.57
2017-09-10T06:02:53.961Z,22.83
2017-09-10T06:05:22.187Z,25.67
2017-09-10T06:07:49.654Z,26.67
2017-09-10T06:10:17.143Z,32.70
2017-09-10T06:12:45.377Z,29.73
2017-09-10T06:15:13.608Z,27.37
2017-09-10T06:17:41.082Z,35.67
2017-09-10T06:20:08.552Z,35.80
2017-09-10T06:22:36.028Z,29.70
2017-09-10T06:25:03.604Z,41.13
2017-09-10T06:27:31.097Z,33.33
2017-09-10T06:29:58.620Z,28.70
2017-09-10T06:32:26.092Z,26.00
2017-09-10T06:34:54.354Z,25.77
2017-09-10T06:37:21.836Z,23.20
2017-09-10T06:39:50.066Z,23.97
2017-09-10T06:42:17.535Z,28.13
2017-09-10T06:44:45.008Z,25.70
2017-09-10T06:47:13.280Z,24.20
2017-09-10T06:49:40.748Z,30.03
2017-09-10T06:52:08.316Z,28.30
2017-09-10T06:54:36.278Z,26.83
2017-09-10T06:57:04.520Z,32.80
2017-09-10T06:59:31.988Z,17.23
2017-09-10T07:02:00.298Z,21.97
2017-09-10T07:04:27.808Z,24.20
2017-09-10T07:06:56.056Z,24.90
2017-09-10T07:09:23.536Z,22.30
2017-09-10T07:11:50.999Z,14.00
2017-09-10T07:14:18.466Z,19.93
2017-09-10T07:16:45.948Z,19.17
2017-09-10T07:19:14.179Z,19.47
2017-09-10T07:21:41.639Z,20.07
2017-09-10T07:24:09.129Z,27.97
2017-09-10T07:26:37.363Z,17.40
2017-09-10T07:29:04.836Z,15.20
2017-09-10T07:31:32.317Z,18.07
2017-09-10T07:34:00.548Z,16.80
2017-09-10T07:36:28.048Z,15.53
2017-09-10T07:38:56.140Z,21.30
2017-09-10T07:41:23.602Z,14.40
2017-09-10T07:43:51.083Z,18.70
2017-09-10T07:46:18.608Z,17.10
2017-09-10T07:48:46.152Z,14.60
2017-09-10T07:51:14.381Z,17.23
2017-09-10T07:53:41.852Z,19.90
2017-09-10T07:56:09.343Z,14.90
2017-09-10T07:58:37.595Z,21.80
2017-09-10T08:01:05.108Z,22.73
2017-09-10T08:03:33.551Z,19.67
2017-09-10T08:06:01.800Z,18.50
2017-09-10T08:08:29.572Z,20.20
2017-09-10T08:10:57.964Z,13.13
2017-09-10T08:13:26.197Z,16.53
2017-09-10T08:15:53.987Z,19.50
2017-09-10T08:18:21.460Z,20.20
2017-09-10T08:20:49.701Z,23.63
2017-09-10T08:23:17.190Z,22.53
2017-09-10T08:25:45.419Z,18.97
2017-09-10T08:28:13.970Z,21.40
2017-09-10T08:30:41.456Z,21.00
2017-09-10T08:33:08.948Z,19.47
2017-09-10T08:35:36.421Z,18.10
2017-09-10T08:38:04.663Z,20.37
2017-09-10T08:40:32.128Z,27.00
2017-09-10T08:42:59.704Z,19.50
2017-09-10T08:45:27.474Z,15.60
2017-09-10T08:47:55.704Z,19.57
2017-09-10T08:50:23.163Z,17.87
2017-09-10T08:52:50.943Z,19.73
2017-09-10T08:55:18.415Z,16.50
2017-09-10T08:57:46.691Z,16.00
2017-09-10T09:00:14.167Z,17.47
2017-09-10T09:02:42.398Z,18.93
2017-09-10T09:05:09.863Z,20.07
2017-09-10T09:07:37.342Z,19.83
2017-09-10T09:10:05.567Z,16.90
2017-09-10T09:12:33.068Z,18.43
2017-09-10T09:15:00.543Z,19.13
2017-09-10T09:17:28.780Z,15.13
2017-09-10T09:19:56.252Z,15.40
2017-09-10T09:22:23.732Z,16.40
2017-09-10T09:24:52.004Z,16.07
2017-09-10T09:27:19.492Z,17.23
2017-09-10T09:29:46.967Z,14.77
2017-09-10T09:32:14.444Z,17.07
2017-09-10T09:34:41.921Z,17.50
2017-09-10T09:37:09.403Z,19.23
2017-09-10T09:39:36.876Z,20.63
2017-09-10T09:42:04.349Z,17.20
2017-09-10T09:44:31.852Z,15.80
2017-09-10T09:47:00.116Z,17.90
2017-09-10T09:49:27.683Z,15.50
2017-09-10T09:51:55.152Z,12.73
2017-09-10T09:54:23.407Z,16.83
2017-09-10T09:56:50.871Z,13.33
2017-09-10T09:59:18.430Z,13.07
2017-09-10T10:01:45.984Z,14.50
2017-09-10T10:04:14.968Z,12.70
2017-09-10T10:06:42.435Z,10.10
2017-09-10T10:09:09.912Z,14.47
2017-09-10T10:11:38.171Z,15.53
2017-09-10T10:14:05.639Z,16.33
2017-09-10T10:16:33.894Z,8.83
2017-09-10T10:19:01.402Z,8.57
2017-09-10T10:21:28.887Z,10.97
2017-09-10T10:23:57.364Z,8.70
2017-09-10T10:26:24.830Z,11.47
2017-09-10T10:28:52.302Z,8.83
2017-09-10T10:31:19.776Z,8.00
2017-09-10T10:33:48.015Z,8.80
2017-09-10T10:36:15.500Z,6.60
2017-09-10T10:38:43.773Z,5.10
2017-09-10T10:41:11.324Z,4.30
2017-09-10T10:43:38.880Z,4.47
2017-09-10T10:46:06.334Z,5.03
2017-09-10T10:48:33.795Z,4.13
2017-09-10T10:51:01.273Z,5.30
2017-09-10T10:53:29.504Z,5.43
2017-09-10T10:55:57.041Z,4.77
2017-09-10T10:58:24.858Z,5.10
2017-09-10T11:00:52.411Z,5.83
2017-09-10T11:03:19.929Z,4.07
2017-09-10T11:05:47.397Z,7.80
2017-09-10T11:08:14.851Z,7.47
2017-09-10T11:10:42.321Z,7.20
2017-09-10T11:13:09.912Z,5.63
2017-09-10T11:15:37.364Z,7.70
2017-09-10T11:18:04.925Z,8.63
2017-09-10T11:20:32.403Z,4.77
2017-09-10T11:22:59.860Z,5.23
2017-09-10T11:25:28.124Z,9.37
2017-09-10T11:27:55.572Z,8.40
2017-09-10T11:30:23.799Z,6.10
2017-09-10T11:32:51.296Z,6.10
2017-09-10T11:35:18.853Z,6.90
2017-09-10T11:37:46.307Z,6.67
2017-09-10T11:40:13.778Z,6.20
2017-09-10T11:42:42.012Z,5.93
2017-09-10T11:45:09.512Z,7.50
2017-09-10T11:47:37.732Z,4.97
2017-09-10T11:50:05.451Z,6.97
2017-09-10T11:52:33.711Z,8.13
2017-09-10T11:55:01.265Z,6.67
2017-09-10T11:57:29.903Z,4.73
2017-09-10T11:59:57.462Z,4.87
2017-09-10T12:02:24.919Z,5.10
2017-09-10T12:04:52.729Z,5.60
2017-09-10T12:07:20.191Z,3.80
2017-09-10T12:09:47.652Z,4.77
2017-09-10T12:12:15.928Z,3.37
2017-09-10T12:14:44.192Z,3.93
2017-09-10T12:17:12.647Z,5.27
2017-09-10T12:19:41.153Z,6.50
2017-09-10T12:22:08.619Z,7.40
2017-09-10T12:24:36.866Z,11.30
2017-09-10T12:27:04.331Z,5.83
2017-09-10T12:29:31.787Z,5.07
2017-09-10T12:31:59.272Z,3.50
2017-09-10T12:34:27.521Z,3.40
2017-09-10T12:36:55.059Z,2.97
2017-09-10T12:39:22.512Z,8.13
2017-09-10T12:41:50.007Z,3.67
2017-09-10T12:44:17.565Z,3.93
2017-09-10T12:46:45.036Z,7.20
2017-09-10T12:49:14.280Z,5.53
2017-09-10T12:51:41.735Z,3.13
2017-09-10T12:54:09.210Z,5.03
2017-09-10T12:56:37.716Z,5.83
2017-09-10T12:59:05.950Z,6.20
2017-09-10T13:01:33.412Z,4.70
2017-09-10T13:04:00.895Z,4.47
2017-09-10T13:06:28.387Z,5.33
2017-09-10T13:08:55.871Z,8.03
2017-09-10T13:11:23.345Z,4.90
2017-09-10T13:13:50.795Z,5.40
2017-09-10T13:16:18.287Z,3.70
2017-09-10T13:18:45.756Z,7.23
2017-09-10T13:21:14.802Z,3.40
2017-09-10T13:23:42.268Z,3.73
2017-09-10T13:26:09.748Z,3.90
2017-09-10T13:28:37.205Z,6.27
2017-09-10T13:31:04.659Z,8.60
2017-09-10T13:33:32.224Z,9.13
2017-09-10T13:35:59.692Z,6.00
2017-09-10T13:38:27.918Z,5.60
2017-09-10T13:40:55.380Z,4.70
2017-09-10T13:43:23.008Z,7.50
2017-09-10T13:45:50.476Z,11.73
2017-09-10T13:48:17.946Z,8.30
2017-09-10T13:50:45.416Z,8.07
2017-09-10T13:53:12.899Z,8.07
2017-09-10T13:55:40.367Z,7.83
2017-09-10T13:58:07.852Z,10.30
2017-09-10T14:00:35.387Z,10.17
2017-09-10T14:03:03.629Z,9.70
2017-09-10T14:05:31.107Z,7.63
2017-09-10T14:07:59.355Z,8.93
2017-09-10T14:10:26.826Z,10.23
2017-09-10T14:12:54.341Z,7.23
2017-09-10T14:15:21.857Z,10.33
2017-09-10T14:17:49.319Z,9.47
2017-09-10T14:20:17.562Z,8.13
2017-09-10T14:22:45.028Z,10.70
2017-09-10T14:25:12.992Z,7.20
2017-09-10T14:27:41.159Z,7.40
2017-09-10T14:30:08.616Z,11.93
2017-09-10T14:32:36.092Z,5.97
2017-09-10T14:35:03.648Z,8.07
2017-09-10T14:37:31.203Z,11.60
2017-09-10T14:39:59.177Z,7.97
2017-09-10T14:42:26.627Z,13.70
2017-09-10T14:44:54.192Z,9.00
2017-09-10T14:47:21.667Z,6.90
2017-09-10T14:49:49.955Z,10.40
2017-09-10T14:52:18.179Z,6.17
2017-09-10T14:54:45.663Z,8.70
2017-09-10T14:57:13.883Z,8.77
2017-09-10T14:59:41.343Z,7.10
2017-09-10T15:02:08.840Z,9.70
2017-09-10T15:04:36.307Z,6.17
2017-09-10T15:07:03.868Z,7.67
2017-09-10T15:09:31.616Z,6.20
2017-09-10T15:11:59.096Z,8.87
2017-09-10T15:14:27.335Z,9.50
2017-09-10T15:16:54.791Z,8.63
2017-09-10T15:19:22.272Z,7.87
2017-09-10T15:21:50.522Z,5.40
2017-09-10T15:24:18.000Z,9.13
2017-09-10T15:26:45.567Z,6.87
2017-09-10T15:29:13.350Z,9.53
2017-09-10T15:31:41.594Z,7.30
2017-09-10T15:34:09.824Z,6.83
2017-09-10T15:36:37.295Z,6.73
2017-09-10T15:39:04.786Z,8.20
2017-09-10T15:41:32.238Z,11.83
2017-09-10T15:43:59.695Z,7.10
2017-09-10T15:46:27.195Z,6.60
2017-09-10T15:48:54.684Z,12.60
2017-09-10T15:51:22.223Z,10.80
2017-09-10T15:53:49.699Z,5.20
2017-09-10T15:56:17.184Z,8.20
2017-09-10T15:58:44.643Z,8.07
2017-09-10T16:01:12.123Z,4.27
2017-09-10T16:03:39.663Z,5.80
2017-09-10T16:06:07.896Z,7.07
2017-09-10T16:08:35.377Z,11.23
2017-09-10T16:11:02.839Z,7.13
2017-09-10T16:13:30.300Z,5.93
2017-09-10T16:15:57.805Z,6.33
2017-09-10T16:18:25.268Z,9.03
2017-09-10T16:20:52.739Z,4.97
2017-09-10T16:23:20.548Z,5.30
2017-09-10T16:25:48.785Z,11.07
2017-09-10T16:28:16.255Z,6.03
2017-09-10T16:30:43.824Z,7.50
2017-09-10T16:33:11.279Z,6.03
2017-09-10T16:35:38.749Z,6.30
2017-09-10T16:38:07.326Z,5.43
2017-09-10T16:40:34.884Z,8.50
2017-09-10T16:43:02.344Z,8.00
2017-09-10T16:45:29.807Z,6.20
2017-09-10T16:47:57.352Z,14.20
2017-09-10T16:50:24.807Z,4.97
2017-09-10T16:52:52.363Z,6.13
2017-09-10T16:55:19.838Z,5.67
2017-09-10T16:57:48.060Z,5.43
2017-09-10T17:00:16.557Z,7.10
2017-09-10T17:02:44.044Z,9.67
2017-09-10T17:05:12.304Z,6.03
2017-09-10T17:07:39.773Z,6.37
2017-09-10T17:10:08.015Z,5.60
2017-09-10T17:12:35.504Z,5.57
2017-09-10T17:15:02.976Z,7.17
2017-09-10T17:17:31.236Z,8.93
2017-09-10T17:19:58.718Z,8.83
2017-09-10T17:22:26.952Z,8.40
2017-09-10T17:24:54.424Z,7.80
2017-09-10T17:27:21.885Z,5.30
2017-09-10T17:29:50.155Z,8.97
2017-09-10T17:32:17.625Z,9.23
2017-09-10T17:34:45.863Z,11.13
2017-09-10T17:37:13.660Z,7.13
2017-09-10T17:39:41.890Z,6.80
2017-09-10T17:42:09.357Z,11.67
2017-09-10T17:44:38.048Z,12.03
2017-09-10T17:47:05.513Z,9.03
2017-09-10T17:49:32.971Z,4.83
2017-09-10T17:52:01.564Z,6.20
2017-09-10T17:54:29.027Z,8.63
2017-09-10T17:56:57.297Z,10.37
2017-09-10T17:59:24.956Z,5.60
2017-09-10T18:01:52.426Z,6.80
2017-09-10T18:04:19.903Z,8.53
2017-09-10T18:06:47.424Z,6.30
2017-09-10T18:09:14.886Z,8.50
2017-09-10T18:11:42.356Z,14.73
2017-09-10T18:14:10.594Z,8.90
2017-09-10T18:16:38.071Z,10.30
2017-09-10T18:19:05.526Z,5.00
2017-09-10T18:21:32.996Z,4.23
2017-09-10T18:24:01.214Z,9.93
2017-09-10T18:26:28.784Z,5.10
2017-09-10T18:28:56.261Z,5.70
2017-09-10T18:31:23.720Z,6.43
2017-09-10T18:33:51.175Z,9.60
2017-09-10T18:36:18.947Z,4.43
2017-09-10T18:38:46.409Z,5.03
2017-09-10T18:41:13.860Z,6.47
2017-09-10T18:43:42.139Z,8.70
2017-09-10T18:46:09.604Z,9.03
2017-09-10T18:48:37.079Z,5.83
2017-09-10T18:51:05.325Z,4.30
2017-09-10T18:53:32.816Z,7.60
2017-09-10T18:56:00.339Z,6.73
2017-09-10T18:58:27.811Z,8.03
2017-09-10T19:00:56.458Z,5.33
2017-09-10T19:03:23.939Z,4.30
2017-09-10T19:05:51.408Z,7.10
2017-09-10T19:08:19.651Z,5.23
2017-09-10T19:10:47.155Z,7.67
2017-09-10T19:13:15.392Z,8.57
2017-09-10T19:15:42.863Z,6.50
2017-09-10T19:18:10.315Z,7.70
2017-09-10T19:20:38.595Z,11.27
2017-09-10T19:23:06.048Z,5.33
2017-09-10T19:25:33.504Z,6.47
2017-09-10T19:28:01.302Z,7.37
2017-09-10T19:30:28.965Z,7.07
2017-09-10T19:32:56.432Z,8.13
2017-09-10T19:35:23.953Z,6.80
2017-09-10T19:37:51.411Z,7.30
2017-09-10T19:40:19.645Z,9.37
2017-09-10T19:42:47.143Z,9.20
2017-09-10T19:45:14.599Z,7.30
2017-09-10T19:47:42.083Z,11.03
2017-09-10T19:50:09.624Z,6.93
2017-09-10T19:52:37.854Z,12.90
2017-09-10T19:55:05.348Z,9.53
2017-09-10T19:57:33.003Z,11.87
2017-09-10T20:00:00.478Z,15.87
2017-09-10T20:02:28.743Z,11.00
2017-09-10T20:04:57.671Z,9.83
2017-09-10T20:07:25.135Z,6.10
2017-09-10T20:09:52.644Z,8.97
2017-09-10T20:12:20.880Z,6.67
2017-09-10T20:14:48.331Z,7.57
2017-09-10T20:17:16.623Z,5.47
2017-09-10T20:19:44.091Z,5.63
2017-09-10T20:22:11.556Z,5.67
2017-09-10T20:24:39.796Z,5.73
2017-09-10T20:27:07.280Z,6.60
2017-09-10T20:29:34.760Z,4.97
2017-09-10T20:32:03.028Z,5.93
2017-09-10T20:34:31.269Z,5.93
2017-09-10T20:36:58.729Z,4.50
2017-09-10T20:39:26.189Z,7.57
2017-09-10T20:41:53.768Z,7.10
2017-09-10T20:44:21.983Z,3.70
2017-09-10T20:46:49.499Z,8.53
2017-09-10T20:49:17.072Z,3.70
2017-09-10T20:51:45.336Z,7.20
2017-09-10T20:54:12.847Z,6.80
2017-09-10T20:56:40.311Z,6.07
2017-09-10T20:59:07.883Z,9.43
2017-09-10T21:01:35.340Z,4.27
2017-09-10T21:04:02.808Z,4.93
2017-09-10T21:06:30.283Z,7.40
2017-09-10T21:08:57.742Z,6.47
2017-09-10T21:11:26.029Z,5.83
2017-09-10T21:13:54.292Z,7.67
2017-09-10T21:16:22.258Z,6.50
2017-09-10T21:18:49.743Z,10.30
2017-09-10T21:21:17.991Z,3.40
2017-09-10T21:23:45.559Z,3.83
2017-09-10T21:26:13.790Z,4.80
2017-09-10T21:28:41.259Z,8.03
2017-09-10T21:31:08.718Z,5.50
2017-09-10T21:33:36.244Z,5.27
2017-09-10T21:36:03.686Z,7.47
2017-09-10T21:38:31.207Z,8.33
2017-09-10T21:40:58.719Z,5.10
2017-09-10T21:43:26.214Z,5.60
2017-09-10T21:45:54.270Z,6.53
2017-09-10T21:48:21.736Z,8.03
2017-09-10T21:50:49.204Z,6.13
2017-09-10T21:53:16.677Z,6.23
2017-09-10T21:55:44.935Z,5.50
2017-09-10T21:58:13.201Z,3.70
2017-09-10T22:00:40.659Z,8.77
2017-09-10T22:03:08.387Z,5.33
2017-09-10T22:05:35.877Z,9.30
2017-09-10T22:08:03.335Z,11.00
2017-09-10T22:10:30.900Z,5.60
2017-09-10T22:12:58.359Z,4.50
2017-09-10T22:15:25.832Z,3.97
2017-09-10T22:17:54.091Z,4.40
2017-09-10T22:20:21.548Z,4.87
2017-09-10T22:22:49.107Z,5.53
2017-09-10T22:25:16.663Z,15.93
2017-09-10T22:27:44.127Z,4.47
2017-09-10T22:30:11.675Z,7.13
2017-09-10T22:32:39.148Z,4.33
2017-09-10T22:35:06.603Z,3.60
2017-09-10T22:37:34.872Z,7.73
2017-09-10T22:40:02.427Z,9.13
2017-09-10T22:42:29.982Z,10.63
2017-09-10T22:44:57.451Z,2.10
2017-09-10T22:47:25.724Z,3.33
2017-09-10T22:49:53.174Z,4.80
2017-09-10T22:52:20.715Z,4.50
2017-09-10T22:54:48.291Z,4.73
2017-09-10T22:57:16.111Z,7.97
2017-09-10T22:59:43.616Z,5.60
2017-09-10T23:02:11.088Z,10.40
2017-09-10T23:04:39.355Z,6.73
2017-09-10T23:07:06.811Z,8.97
2017-09-10T23:09:34.388Z,5.60
2017-09-10T23:12:01.927Z,9.07
2017-09-10T23:14:29.471Z,7.47
2017-09-10T23:16:56.938Z,4.57
2017-09-10T23:19:24.404Z,14.80
2017-09-10T23:21:51.855Z,6.40
2017-09-10T23:24:20.131Z,4.83
2017-09-10T23:26:47.688Z,3.03
2017-09-10T23:29:15.374Z,4.00
2017-09-10T23:31:43.615Z,3.90
2017-09-10T23:34:11.833Z,6.50
2017-09-10T23:36:39.357Z,4.93
2017-09-10T23:39:06.907Z,3.67
2017-09-10T23:41:34.367Z,3.37
2017-09-10T23:44:01.827Z,3.60
2017-09-10T23:46:29.293Z,7.50
2017-09-10T23:48:57.564Z,3.70
2017-09-10T23:51:25.786Z,2.20
2017-09-10T23:53:53.263Z,8.73
2017-09-10T23:56:20.727Z,4.30
2017-09-10T23:58:48.209Z,6.33
